sensor_id;sensor_type;location;lat;lon;timestamp;pressure;altitude;pressure_sealevel;temperature;humidity
63883;BME280;50047;50.596;30.466;2023-08-24T00:01:19;99457.77;;;17.81;60.68
63883;BME280;50047;50.596;30.466;2023-08-24T00:03:48;99461.02;;;17.81;60.99
63883;BME280;50047;50.596;30.466;2023-08-24T00:06:16;99459.73;;;17.80;60.96
63883;BME280;50047;50.596;30.466;2023-08-24T00:08:44;99459.96;;;17.79;60.57
63883;BME280;50047;50.596;30.466;2023-08-24T00:11:12;99456.67;;;17.76;60.45
63883;BME280;50047;50.596;30.466;2023-08-24T00:13:43;99454.28;;;17.73;59.85
63883;BME280;50047;50.596;30.466;2023-08-24T00:16:18;99459.17;;;17.69;59.58
63883;BME280;50047;50.596;30.466;2023-08-24T00:18:47;99457.18;;;17.68;59.23
63883;BME280;50047;50.596;30.466;2023-08-24T00:21:15;99458.02;;;17.66;59.32
63883;BME280;50047;50.596;30.466;2023-08-24T00:23:50;99453.72;;;17.63;59.05
63883;BME280;50047;50.596;30.466;2023-08-24T00:26:18;99454.38;;;17.61;58.86
63883;BME280;50047;50.596;30.466;2023-08-24T00:28:46;99452.17;;;17.59;58.75
63883;BME280;50047;50.596;30.466;2023-08-24T00:31:15;99452.52;;;17.58;58.51
63883;BME280;50047;50.596;30.466;2023-08-24T00:33:43;99452.20;;;17.56;58.53
63883;BME280;50047;50.596;30.466;2023-08-24T00:36:11;99451.08;;;17.56;58.32
63883;BME280;50047;50.596;30.466;2023-08-24T00:38:39;99449.13;;;17.56;58.20
63883;BME280;50047;50.596;30.466;2023-08-24T00:41:06;99446.65;;;17.55;57.93
63883;BME280;50047;50.596;30.466;2023-08-24T00:43:34;99445.40;;;17.54;57.96
63883;BME280;50047;50.596;30.466;2023-08-24T00:46:03;99444.27;;;17.53;57.70
63883;BME280;50047;50.596;30.466;2023-08-24T00:48:32;99449.31;;;17.51;57.79
63883;BME280;50047;50.596;30.466;2023-08-24T00:51:01;99449.65;;;17.50;57.65
63883;BME280;50047;50.596;30.466;2023-08-24T00:53:30;99447.77;;;17.48;57.69
63883;BME280;50047;50.596;30.466;2023-08-24T00:55:59;99448.40;;;17.46;57.65
63883;BME280;50047;50.596;30.466;2023-08-24T00:58:27;99451.39;;;17.43;57.73
63883;BME280;50047;50.596;30.466;2023-08-24T01:00:56;99451.67;;;17.41;57.74
63883;BME280;50047;50.596;30.466;2023-08-24T01:03:25;99450.21;;;17.41;57.62
63883;BME280;50047;50.596;30.466;2023-08-24T01:05:52;99445.83;;;17.40;57.59
63883;BME280;50047;50.596;30.466;2023-08-24T01:08:21;99442.74;;;17.41;57.39
63883;BME280;50047;50.596;30.466;2023-08-24T01:10:59;99440.42;;;17.42;57.47
63883;BME280;50047;50.596;30.466;2023-08-24T01:13:38;99442.42;;;17.42;57.43
63883;BME280;50047;50.596;30.466;2023-08-24T01:16:16;99440.52;;;17.42;57.62
63883;BME280;50047;50.596;30.466;2023-08-24T01:18:46;99441.11;;;17.43;57.30
63883;BME280;50047;50.596;30.466;2023-08-24T01:21:15;99438.88;;;17.43;57.35
63883;BME280;50047;50.596;30.466;2023-08-24T01:24:02;99439.33;;;17.43;57.33
63883;BME280;50047;50.596;30.466;2023-08-24T01:26:33;99442.28;;;17.44;57.16
63883;BME280;50047;50.596;30.466;2023-08-24T01:29:04;99442.55;;;17.45;57.29
63883;BME280;50047;50.596;30.466;2023-08-24T01:31:33;99443.63;;;17.46;57.24
63883;BME280;50047;50.596;30.466;2023-08-24T01:34:02;99444.92;;;17.45;57.15
63883;BME280;50047;50.596;30.466;2023-08-24T01:36:30;99447.65;;;17.44;57.03
63883;BME280;50047;50.596;30.466;2023-08-24T01:39:08;99445.17;;;17.42;56.90
63883;BME280;50047;50.596;30.466;2023-08-24T01:41:39;99445.07;;;17.40;56.78
63883;BME280;50047;50.596;30.466;2023-08-24T01:44:13;99447.25;;;17.38;56.76
63883;BME280;50047;50.596;30.466;2023-08-24T01:46:43;99445.33;;;17.37;56.92
63883;BME280;50047;50.596;30.466;2023-08-24T01:49:13;99444.32;;;17.33;57.04
63883;BME280;50047;50.596;30.466;2023-08-24T01:51:42;99446.02;;;17.30;57.23
63883;BME280;50047;50.596;30.466;2023-08-24T01:54:10;99446.25;;;17.26;57.20
63883;BME280;50047;50.596;30.466;2023-08-24T01:56:39;99447.20;;;17.21;57.25
63883;BME280;50047;50.596;30.466;2023-08-24T01:59:07;99448.97;;;17.18;57.33
63883;BME280;50047;50.596;30.466;2023-08-24T02:01:35;99451.69;;;17.14;57.49
63883;BME280;50047;50.596;30.466;2023-08-24T02:04:03;99451.64;;;17.12;57.48
63883;BME280;50047;50.596;30.466;2023-08-24T02:06:31;99452.13;;;17.10;57.57
63883;BME280;50047;50.596;30.466;2023-08-24T02:08:58;99455.77;;;17.09;57.54
63883;BME280;50047;50.596;30.466;2023-08-24T02:11:28;99455.14;;;17.06;57.81
63883;BME280;50047;50.596;30.466;2023-08-24T02:13:56;99454.40;;;17.04;57.90
63883;BME280;50047;50.596;30.466;2023-08-24T02:16:24;99451.48;;;17.02;58.00
63883;BME280;50047;50.596;30.466;2023-08-24T02:18:52;99452.65;;;16.98;58.09
63883;BME280;50047;50.596;30.466;2023-08-24T02:21:20;99453.09;;;16.94;58.19
63883;BME280;50047;50.596;30.466;2023-08-24T02:23:47;99454.33;;;16.90;58.31
63883;BME280;50047;50.596;30.466;2023-08-24T02:26:15;99454.09;;;16.86;58.37
63883;BME280;50047;50.596;30.466;2023-08-24T02:28:43;99454.31;;;16.83;58.54
63883;BME280;50047;50.596;30.466;2023-08-24T02:31:12;99457.95;;;16.80;58.81
63883;BME280;50047;50.596;30.466;2023-08-24T02:33:41;99457.32;;;16.78;58.74
63883;BME280;50047;50.596;30.466;2023-08-24T02:36:09;99455.38;;;16.76;58.86
63883;BME280;50047;50.596;30.466;2023-08-24T02:38:36;99456.30;;;16.74;59.28
63883;BME280;50047;50.596;30.466;2023-08-24T02:41:06;99459.34;;;16.71;59.42
63883;BME280;50047;50.596;30.466;2023-08-24T02:43:34;99456.88;;;16.66;59.63
63883;BME280;50047;50.596;30.466;2023-08-24T02:46:09;99455.22;;;16.63;59.84
63883;BME280;50047;50.596;30.466;2023-08-24T02:48:37;99453.82;;;16.59;60.26
63883;BME280;50047;50.596;30.466;2023-08-24T02:51:05;99457.77;;;16.59;60.19
63883;BME280;50047;50.596;30.466;2023-08-24T02:53:33;99459.96;;;16.63;59.88
63883;BME280;50047;50.596;30.466;2023-08-24T02:56:02;99458.66;;;16.67;59.74
63883;BME280;50047;50.596;30.466;2023-08-24T02:58:31;99460.98;;;16.70;59.79
63883;BME280;50047;50.596;30.466;2023-08-24T03:00:59;99459.27;;;16.72;59.74
63883;BME280;50047;50.596;30.466;2023-08-24T03:03:26;99463.00;;;16.75;59.70
63883;BME280;50047;50.596;30.466;2023-08-24T03:05:59;99465.25;;;16.78;59.62
63883;BME280;50047;50.596;30.466;2023-08-24T03:08:32;99458.14;;;16.87;59.26
63883;BME280;50047;50.596;30.466;2023-08-24T03:11:02;99453.41;;;17.04;58.99
63883;BME280;50047;50.596;30.466;2023-08-24T03:13:30;99456.94;;;17.23;58.54
63883;BME280;50047;50.596;30.466;2023-08-24T03:16:03;99458.23;;;17.47;57.97
63883;BME280;50047;50.596;30.466;2023-08-24T03:18:32;99457.60;;;17.77;57.60
63883;BME280;50047;50.596;30.466;2023-08-24T03:21:01;99455.89;;;18.08;57.03
63883;BME280;50047;50.596;30.466;2023-08-24T03:23:29;99453.50;;;18.43;56.22
63883;BME280;50047;50.596;30.466;2023-08-24T03:25:57;99448.80;;;18.77;55.67
63883;BME280;50047;50.596;30.466;2023-08-24T03:28:25;99446.52;;;19.16;55.03
63883;BME280;50047;50.596;30.466;2023-08-24T03:30:53;99450.45;;;19.54;54.25
63883;BME280;50047;50.596;30.466;2023-08-24T03:33:23;99453.65;;;19.97;53.51
63883;BME280;50047;50.596;30.466;2023-08-24T03:35:51;99454.08;;;20.47;52.62
63883;BME280;50047;50.596;30.466;2023-08-24T03:38:19;99454.73;;;20.93;51.72
63883;BME280;50047;50.596;30.466;2023-08-24T03:40:47;99460.00;;;21.41;50.97
63883;BME280;50047;50.596;30.466;2023-08-24T03:43:15;99469.45;;;21.90;49.80
63883;BME280;50047;50.596;30.466;2023-08-24T03:45:42;99473.27;;;22.42;48.98
63883;BME280;50047;50.596;30.466;2023-08-24T03:48:11;99474.84;;;22.92;48.69
63883;BME280;50047;50.596;30.466;2023-08-24T03:50:39;99469.92;;;23.38;46.81
63883;BME280;50047;50.596;30.466;2023-08-24T03:53:07;99468.38;;;23.84;45.09
63883;BME280;50047;50.596;30.466;2023-08-24T03:55:34;99475.21;;;24.24;44.62
63883;BME280;50047;50.596;30.466;2023-08-24T03:58:02;99470.53;;;24.63;43.61
63883;BME280;50047;50.596;30.466;2023-08-24T04:00:30;99471.21;;;25.01;42.81
63883;BME280;50047;50.596;30.466;2023-08-24T04:02:59;99473.59;;;25.49;42.38
63883;BME280;50047;50.596;30.466;2023-08-24T04:05:28;99472.41;;;26.03;42.21
63883;BME280;50047;50.596;30.466;2023-08-24T04:07:56;99479.11;;;26.60;40.98
63883;BME280;50047;50.596;30.466;2023-08-24T04:10:25;99476.15;;;27.12;40.20
63883;BME280;50047;50.596;30.466;2023-08-24T04:12:53;99470.08;;;27.66;39.70
63883;BME280;50047;50.596;30.466;2023-08-24T04:15:21;99470.66;;;28.19;38.55
63883;BME280;50047;50.596;30.466;2023-08-24T04:17:50;99469.14;;;28.64;37.50
63883;BME280;50047;50.596;30.466;2023-08-24T04:20:18;99471.00;;;29.13;37.00
63883;BME280;50047;50.596;30.466;2023-08-24T04:22:46;99477.92;;;29.51;35.78
63883;BME280;50047;50.596;30.466;2023-08-24T04:25:14;99479.33;;;29.92;35.43
63883;BME280;50047;50.596;30.466;2023-08-24T04:27:42;99476.92;;;30.37;34.40
63883;BME280;50047;50.596;30.466;2023-08-24T04:30:10;99478.37;;;30.85;34.29
63883;BME280;50047;50.596;30.466;2023-08-24T04:32:40;99477.66;;;31.33;33.29
63883;BME280;50047;50.596;30.466;2023-08-24T04:35:08;99478.04;;;31.83;32.71
63883;BME280;50047;50.596;30.466;2023-08-24T04:37:36;99475.27;;;32.25;31.83
63883;BME280;50047;50.596;30.466;2023-08-24T04:40:05;99471.65;;;32.60;31.52
63883;BME280;50047;50.596;30.466;2023-08-24T04:42:34;99471.80;;;32.97;31.09
63883;BME280;50047;50.596;30.466;2023-08-24T04:45:02;99473.59;;;33.27;30.14
63883;BME280;50047;50.596;30.466;2023-08-24T04:47:30;99476.63;;;33.55;29.74
63883;BME280;50047;50.596;30.466;2023-08-24T04:49:58;99471.80;;;33.93;29.46
63883;BME280;50047;50.596;30.466;2023-08-24T04:52:27;99471.48;;;34.35;28.94
63883;BME280;50047;50.596;30.466;2023-08-24T04:54:55;99473.16;;;34.81;28.32
63883;BME280;50047;50.596;30.466;2023-08-24T04:57:24;99469.45;;;35.26;28.12
63883;BME280;50047;50.596;30.466;2023-08-24T04:59:52;99475.56;;;35.71;27.72
63883;BME280;50047;50.596;30.466;2023-08-24T05:02:19;99476.23;;;36.11;26.81
63883;BME280;50047;50.596;30.466;2023-08-24T05:04:47;99477.43;;;36.49;26.41
63883;BME280;50047;50.596;30.466;2023-08-24T05:07:16;99477.31;;;36.84;26.20
63883;BME280;50047;50.596;30.466;2023-08-24T05:09:45;99476.83;;;37.19;25.57
63883;BME280;50047;50.596;30.466;2023-08-24T05:12:12;99479.53;;;37.51;25.37
63883;BME280;50047;50.596;30.466;2023-08-24T05:14:41;99475.20;;;37.75;25.10
63883;BME280;50047;50.596;30.466;2023-08-24T05:17:09;99477.61;;;37.96;24.69
63883;BME280;50047;50.596;30.466;2023-08-24T05:19:37;99478.77;;;38.23;24.50
63883;BME280;50047;50.596;30.466;2023-08-24T05:22:05;99482.99;;;38.56;24.06
63883;BME280;50047;50.596;30.466;2023-08-24T05:24:33;99481.18;;;38.97;24.09
63883;BME280;50047;50.596;30.466;2023-08-24T05:27:03;99481.41;;;39.33;23.59
63883;BME280;50047;50.596;30.466;2023-08-24T05:29:31;99483.42;;;39.54;23.47
63883;BME280;50047;50.596;30.466;2023-08-24T05:31:59;99483.23;;;39.67;22.63
63883;BME280;50047;50.596;30.466;2023-08-24T05:34:26;99485.27;;;39.76;22.88
63883;BME280;50047;50.596;30.466;2023-08-24T05:36:54;99487.35;;;40.03;22.75
63883;BME280;50047;50.596;30.466;2023-08-24T05:39:22;99485.83;;;40.32;22.15
63883;BME280;50047;50.596;30.466;2023-08-24T05:41:53;99485.73;;;40.66;21.70
63883;BME280;50047;50.596;30.466;2023-08-24T05:44:21;99487.49;;;41.10;22.07
63883;BME280;50047;50.596;30.466;2023-08-24T05:46:49;99482.77;;;41.48;21.53
63883;BME280;50047;50.596;30.466;2023-08-24T05:49:16;99478.98;;;41.79;21.03
63883;BME280;50047;50.596;30.466;2023-08-24T05:51:44;99473.52;;;42.02;20.48
63883;BME280;50047;50.596;30.466;2023-08-24T05:54:12;99469.48;;;42.45;20.37
63883;BME280;50047;50.596;30.466;2023-08-24T05:56:41;99472.80;;;42.90;20.14
63883;BME280;50047;50.596;30.466;2023-08-24T05:59:08;99474.10;;;43.13;19.88
63883;BME280;50047;50.596;30.466;2023-08-24T06:01:36;99472.32;;;43.37;19.66
63883;BME280;50047;50.596;30.466;2023-08-24T06:04:08;99467.64;;;43.62;18.94
63883;BME280;50047;50.596;30.466;2023-08-24T06:06:36;99469.91;;;43.90;18.73
63883;BME280;50047;50.596;30.466;2023-08-24T06:09:04;99467.92;;;44.20;18.11
63883;BME280;50047;50.596;30.466;2023-08-24T06:11:35;99463.94;;;44.40;18.17
63883;BME280;50047;50.596;30.466;2023-08-24T06:14:03;99462.20;;;44.74;18.40
63883;BME280;50047;50.596;30.466;2023-08-24T06:16:31;99463.08;;;45.11;17.47
63883;BME280;50047;50.596;30.466;2023-08-24T06:18:59;99465.80;;;45.15;17.12
63883;BME280;50047;50.596;30.466;2023-08-24T06:21:26;99463.23;;;45.36;16.93
63883;BME280;50047;50.596;30.466;2023-08-24T06:23:54;99460.39;;;45.59;16.62
63883;BME280;50047;50.596;30.466;2023-08-24T06:26:22;99464.11;;;45.72;16.64
63883;BME280;50047;50.596;30.466;2023-08-24T06:28:50;99464.77;;;45.48;16.53
63883;BME280;50047;50.596;30.466;2023-08-24T06:31:17;99465.79;;;44.93;16.53
63883;BME280;50047;50.596;30.466;2023-08-24T06:33:45;99469.80;;;44.27;16.81
63883;BME280;50047;50.596;30.466;2023-08-24T06:36:13;99472.64;;;43.10;17.67
63883;BME280;50047;50.596;30.466;2023-08-24T06:38:41;99473.66;;;41.41;18.99
63883;BME280;50047;50.596;30.466;2023-08-24T06:41:09;99473.11;;;39.83;20.15
63883;BME280;50047;50.596;30.466;2023-08-24T06:43:40;99474.64;;;38.42;21.13
63883;BME280;50047;50.596;30.466;2023-08-24T06:46:07;99475.35;;;36.92;22.39
63883;BME280;50047;50.596;30.466;2023-08-24T06:48:36;99478.28;;;35.50;23.53
63883;BME280;50047;50.596;30.466;2023-08-24T06:51:10;99479.08;;;34.35;24.63
63883;BME280;50047;50.596;30.466;2023-08-24T06:53:38;99481.20;;;33.50;26.06
63883;BME280;50047;50.596;30.466;2023-08-24T06:56:05;99483.08;;;32.77;27.52
63883;BME280;50047;50.596;30.466;2023-08-24T06:58:48;99488.36;;;32.04;28.27
63883;BME280;50047;50.596;30.466;2023-08-24T07:01:15;99487.77;;;31.55;28.86
63883;BME280;50047;50.596;30.466;2023-08-24T07:03:43;99487.00;;;30.99;30.27
63883;BME280;50047;50.596;30.466;2023-08-24T07:06:11;99482.13;;;30.37;31.07
63883;BME280;50047;50.596;30.466;2023-08-24T07:08:39;99481.64;;;29.77;31.52
63883;BME280;50047;50.596;30.466;2023-08-24T07:11:08;99481.32;;;29.28;32.07
63883;BME280;50047;50.596;30.466;2023-08-24T07:13:35;99480.61;;;28.99;32.46
63883;BME280;50047;50.596;30.466;2023-08-24T07:16:03;99484.74;;;28.75;32.54
63883;BME280;50047;50.596;30.466;2023-08-24T07:18:31;99478.29;;;28.49;33.30
63883;BME280;50047;50.596;30.466;2023-08-24T07:20:58;99481.02;;;28.28;33.63
63883;BME280;50047;50.596;30.466;2023-08-24T07:23:26;99488.31;;;28.00;33.76
63883;BME280;50047;50.596;30.466;2023-08-24T07:25:54;99485.76;;;27.68;34.58
63883;BME280;50047;50.596;30.466;2023-08-24T07:28:22;99489.27;;;27.40;34.98
63883;BME280;50047;50.596;30.466;2023-08-24T07:30:50;99491.11;;;27.16;35.34
63883;BME280;50047;50.596;30.466;2023-08-24T07:33:18;99485.60;;;26.97;35.41
63883;BME280;50047;50.596;30.466;2023-08-24T07:35:45;99492.19;;;26.79;35.83
63883;BME280;50047;50.596;30.466;2023-08-24T07:38:14;99491.80;;;26.54;37.47
63883;BME280;50047;50.596;30.466;2023-08-24T07:40:41;99487.52;;;26.28;37.50
63883;BME280;50047;50.596;30.466;2023-08-24T07:43:09;99489.02;;;26.12;37.72
63883;BME280;50047;50.596;30.466;2023-08-24T07:45:37;99488.16;;;25.92;38.11
63883;BME280;50047;50.596;30.466;2023-08-24T07:48:05;99488.70;;;25.73;38.37
63883;BME280;50047;50.596;30.466;2023-08-24T07:50:33;99486.38;;;25.60;39.10
63883;BME280;50047;50.596;30.466;2023-08-24T07:53:01;99489.48;;;25.46;39.15
63883;BME280;50047;50.596;30.466;2023-08-24T07:55:28;99494.78;;;25.42;39.17
63883;BME280;50047;50.596;30.466;2023-08-24T07:57:56;99491.63;;;25.19;39.63
63883;BME280;50047;50.596;30.466;2023-08-24T08:00:24;99490.34;;;24.96;40.26
63883;BME280;50047;50.596;30.466;2023-08-24T08:02:52;99492.83;;;24.75;40.45
63883;BME280;50047;50.596;30.466;2023-08-24T08:05:20;99485.88;;;24.69;40.93
63883;BME280;50047;50.596;30.466;2023-08-24T08:07:50;99486.99;;;24.65;40.86
63883;BME280;50047;50.596;30.466;2023-08-24T08:10:18;99485.69;;;24.64;40.79
63883;BME280;50047;50.596;30.466;2023-08-24T08:12:48;99486.36;;;24.63;40.82
63883;BME280;50047;50.596;30.466;2023-08-24T08:15:16;99488.53;;;24.70;40.77
63883;BME280;50047;50.596;30.466;2023-08-24T08:17:43;99487.86;;;24.75;40.45
63883;BME280;50047;50.596;30.466;2023-08-24T08:20:13;99481.27;;;24.70;40.83
63883;BME280;50047;50.596;30.466;2023-08-24T08:22:41;99482.39;;;24.65;40.91
63883;BME280;50047;50.596;30.466;2023-08-24T08:25:09;99482.48;;;24.60;40.89
63883;BME280;50047;50.596;30.466;2023-08-24T08:27:37;99486.83;;;24.33;41.75
63883;BME280;50047;50.596;30.466;2023-08-24T08:30:05;99485.55;;;24.31;41.76
63883;BME280;50047;50.596;30.466;2023-08-24T08:32:33;99483.03;;;24.32;41.63
63883;BME280;50047;50.596;30.466;2023-08-24T08:35:01;99483.74;;;24.38;41.10
63883;BME280;50047;50.596;30.466;2023-08-24T08:37:31;99479.76;;;24.46;40.72
63883;BME280;50047;50.596;30.466;2023-08-24T08:39:59;99480.23;;;24.56;40.51
63883;BME280;50047;50.596;30.466;2023-08-24T08:42:29;99476.48;;;24.54;41.33
63883;BME280;50047;50.596;30.466;2023-08-24T08:44:57;99474.80;;;24.69;40.40
63883;BME280;50047;50.596;30.466;2023-08-24T08:47:25;99478.52;;;24.73;40.67
63883;BME280;50047;50.596;30.466;2023-08-24T08:49:55;99476.31;;;24.67;40.70
63883;BME280;50047;50.596;30.466;2023-08-24T08:52:22;99480.94;;;24.60;40.67
63883;BME280;50047;50.596;30.466;2023-08-24T08:54:54;99475.58;;;24.45;40.91
63883;BME280;50047;50.596;30.466;2023-08-24T08:57:22;99480.27;;;24.35;40.80
63883;BME280;50047;50.596;30.466;2023-08-24T08:59:52;99476.38;;;24.22;41.01
63883;BME280;50047;50.596;30.466;2023-08-24T09:02:20;99474.98;;;24.11;41.52
63883;BME280;50047;50.596;30.466;2023-08-24T09:04:51;99472.02;;;24.01;41.84
63883;BME280;50047;50.596;30.466;2023-08-24T09:07:19;99473.46;;;23.94;42.05
63883;BME280;50047;50.596;30.466;2023-08-24T09:09:48;99472.41;;;23.87;41.83
63883;BME280;50047;50.596;30.466;2023-08-24T09:12:16;99468.21;;;23.82;41.66
63883;BME280;50047;50.596;30.466;2023-08-24T09:14:44;99467.09;;;23.80;41.65
63883;BME280;50047;50.596;30.466;2023-08-24T09:17:22;99466.52;;;23.79;41.81
63883;BME280;50047;50.596;30.466;2023-08-24T09:19:50;99462.98;;;23.78;41.86
63883;BME280;50047;50.596;30.466;2023-08-24T09:22:19;99457.77;;;23.86;41.55
63883;BME280;50047;50.596;30.466;2023-08-24T09:24:48;99455.31;;;23.98;41.38
63883;BME280;50047;50.596;30.466;2023-08-24T09:27:21;99453.03;;;24.08;41.12
63883;BME280;50047;50.596;30.466;2023-08-24T09:29:50;99453.02;;;24.18;41.30
63883;BME280;50047;50.596;30.466;2023-08-24T09:32:28;99453.52;;;24.30;41.48
63883;BME280;50047;50.596;30.466;2023-08-24T09:35:02;99443.20;;;24.40;40.95
63883;BME280;50047;50.596;30.466;2023-08-24T09:37:34;99443.36;;;24.50;41.16
63883;BME280;50047;50.596;30.466;2023-08-24T09:40:04;99441.67;;;24.61;41.03
63883;BME280;50047;50.596;30.466;2023-08-24T09:42:40;99445.80;;;24.67;40.42
63883;BME280;50047;50.596;30.466;2023-08-24T09:45:13;99446.02;;;24.68;40.16
63883;BME280;50047;50.596;30.466;2023-08-24T09:47:51;99447.77;;;24.61;40.05
63883;BME280;50047;50.596;30.466;2023-08-24T09:50:22;99445.77;;;24.62;40.34
63883;BME280;50047;50.596;30.466;2023-08-24T09:52:53;99440.58;;;24.53;41.12
63883;BME280;50047;50.596;30.466;2023-08-24T09:55:24;99441.69;;;24.41;41.13
63883;BME280;50047;50.596;30.466;2023-08-24T09:57:55;99440.36;;;24.33;40.95
63883;BME280;50047;50.596;30.466;2023-08-24T10:00:25;99436.56;;;24.26;40.89
63883;BME280;50047;50.596;30.466;2023-08-24T10:02:53;99439.53;;;24.28;40.56
63883;BME280;50047;50.596;30.466;2023-08-24T10:05:23;99430.17;;;24.30;40.69
63883;BME280;50047;50.596;30.466;2023-08-24T10:07:55;99423.98;;;24.38;40.40
63883;BME280;50047;50.596;30.466;2023-08-24T10:10:25;99422.69;;;24.47;39.93
63883;BME280;50047;50.596;30.466;2023-08-24T10:12:59;99416.80;;;24.52;39.76
63883;BME280;50047;50.596;30.466;2023-08-24T10:15:28;99417.44;;;24.57;39.56
63883;BME280;50047;50.596;30.466;2023-08-24T10:17:57;99413.00;;;24.59;39.93
63883;BME280;50047;50.596;30.466;2023-08-24T10:20:26;99412.61;;;24.59;39.83
63883;BME280;50047;50.596;30.466;2023-08-24T10:22:54;99412.52;;;24.58;39.42
63883;BME280;50047;50.596;30.466;2023-08-24T10:25:23;99414.95;;;24.67;39.38
63883;BME280;50047;50.596;30.466;2023-08-24T10:27:52;99417.11;;;24.76;39.30
63883;BME280;50047;50.596;30.466;2023-08-24T10:30:21;99420.25;;;24.74;39.35
63883;BME280;50047;50.596;30.466;2023-08-24T10:32:51;99416.32;;;24.64;38.96
63883;BME280;50047;50.596;30.466;2023-08-24T10:35:22;99412.60;;;24.51;39.40
63883;BME280;50047;50.596;30.466;2023-08-24T10:37:52;99419.25;;;24.35;40.59
63883;BME280;50047;50.596;30.466;2023-08-24T10:40:35;99411.67;;;24.21;40.54
63883;BME280;50047;50.596;30.466;2023-08-24T10:43:04;99411.52;;;24.21;40.73
63883;BME280;50047;50.596;30.466;2023-08-24T10:46:01;99408.08;;;24.31;40.78
63883;BME280;50047;50.596;30.466;2023-08-24T10:48:57;99407.73;;;24.50;40.38
63883;BME280;50047;50.596;30.466;2023-08-24T10:51:25;99406.17;;;24.66;40.13
63883;BME280;50047;50.596;30.466;2023-08-24T10:53:58;99405.77;;;24.74;39.50
63883;BME280;50047;50.596;30.466;2023-08-24T10:56:52;99395.90;;;24.86;39.67
63883;BME280;50047;50.596;30.466;2023-08-24T10:59:22;99398.99;;;25.06;39.62
63883;BME280;50047;50.596;30.466;2023-08-24T11:04:21;99400.32;;;25.50;38.36
63883;BME280;50047;50.596;30.466;2023-08-24T11:06:57;99405.04;;;25.71;38.22
63883;BME280;50047;50.596;30.466;2023-08-24T11:09:44;99401.42;;;25.92;37.84
63883;BME280;50047;50.596;30.466;2023-08-24T11:12:13;99396.02;;;26.14;37.24
63883;BME280;50047;50.596;30.466;2023-08-24T11:14:51;99399.15;;;26.24;36.52
63883;BME280;50047;50.596;30.466;2023-08-24T11:17:22;99390.50;;;26.27;36.59
63883;BME280;50047;50.596;30.466;2023-08-24T11:19:52;99387.69;;;26.33;36.34
63883;BME280;50047;50.596;30.466;2023-08-24T11:22:20;99386.72;;;26.37;36.32
63883;BME280;50047;50.596;30.466;2023-08-24T11:24:53;99388.30;;;26.40;36.18
63883;BME280;50047;50.596;30.466;2023-08-24T11:27:39;99389.17;;;26.43;36.13
63883;BME280;50047;50.596;30.466;2023-08-24T11:30:20;99389.86;;;26.40;36.38
63883;BME280;50047;50.596;30.466;2023-08-24T12:10:16;99372.39;;;26.74;36.50
63883;BME280;50047;50.596;30.466;2023-08-24T12:12:44;99372.57;;;26.70;36.36
63883;BME280;50047;50.596;30.466;2023-08-24T12:15:17;99365.19;;;26.66;36.37
63883;BME280;50047;50.596;30.466;2023-08-24T12:17:47;99365.28;;;26.67;37.07
63883;BME280;50047;50.596;30.466;2023-08-24T12:20:20;99361.21;;;26.77;36.80
63883;BME280;50047;50.596;30.466;2023-08-24T12:22:54;99361.49;;;26.90;35.96
63883;BME280;50047;50.596;30.466;2023-08-24T12:25:22;99353.24;;;27.04;35.96
63883;BME280;50047;50.596;30.466;2023-08-24T12:27:51;99355.44;;;27.18;35.74
63883;BME280;50047;50.596;30.466;2023-08-24T12:30:19;99349.35;;;27.31;35.70
63883;BME280;50047;50.596;30.466;2023-08-24T12:32:48;99346.45;;;27.43;35.19
63883;BME280;50047;50.596;30.466;2023-08-24T12:35:18;99349.02;;;27.53;34.64
63883;BME280;50047;50.596;30.466;2023-08-24T12:37:46;99342.96;;;27.50;34.90
63883;BME280;50047;50.596;30.466;2023-08-24T12:40:14;99348.84;;;27.39;35.05
63883;BME280;50047;50.596;30.466;2023-08-24T12:42:42;99346.41;;;27.24;35.20
63883;BME280;50047;50.596;30.466;2023-08-24T12:45:11;99338.98;;;27.07;34.69
63883;BME280;50047;50.596;30.466;2023-08-24T12:47:38;99334.84;;;26.99;34.83
63883;BME280;50047;50.596;30.466;2023-08-24T12:50:07;99334.97;;;27.04;35.19
63883;BME280;50047;50.596;30.466;2023-08-24T12:52:34;99334.20;;;26.96;35.09
63883;BME280;50047;50.596;30.466;2023-08-24T12:55:02;99332.61;;;26.89;34.88
63883;BME280;50047;50.596;30.466;2023-08-24T12:57:32;99330.88;;;26.83;35.12
63883;BME280;50047;50.596;30.466;2023-08-24T13:00:00;99330.23;;;26.79;34.75
63883;BME280;50047;50.596;30.466;2023-08-24T13:02:27;99329.96;;;26.78;34.98
63883;BME280;50047;50.596;30.466;2023-08-24T13:05:05;99325.80;;;26.84;35.02
63883;BME280;50047;50.596;30.466;2023-08-24T13:07:34;99322.38;;;26.96;34.80
63883;BME280;50047;50.596;30.466;2023-08-24T13:10:03;99315.27;;;27.09;34.72
63883;BME280;50047;50.596;30.466;2023-08-24T13:12:32;99313.84;;;27.20;34.61
63883;BME280;50047;50.596;30.466;2023-08-24T13:15:01;99309.09;;;27.31;34.33
63883;BME280;50047;50.596;30.466;2023-08-24T13:17:30;99307.24;;;27.41;34.18
63883;BME280;50047;50.596;30.466;2023-08-24T13:19:58;99305.44;;;27.50;33.43
63883;BME280;50047;50.596;30.466;2023-08-24T13:22:26;99298.98;;;27.58;33.18
63883;BME280;50047;50.596;30.466;2023-08-24T13:24:54;99299.33;;;27.66;33.01
63883;BME280;50047;50.596;30.466;2023-08-24T13:27:21;99306.41;;;27.67;33.99
63883;BME280;50047;50.596;30.466;2023-08-24T13:29:49;99302.93;;;27.53;34.48
63883;BME280;50047;50.596;30.466;2023-08-24T13:32:17;99308.44;;;27.33;34.99
63883;BME280;50047;50.596;30.466;2023-08-24T13:34:46;99300.36;;;27.27;34.60
63883;BME280;50047;50.596;30.466;2023-08-24T13:37:14;99300.88;;;27.19;34.93
63883;BME280;50047;50.596;30.466;2023-08-24T13:39:43;99301.36;;;27.02;35.42
63883;BME280;50047;50.596;30.466;2023-08-24T13:42:10;99295.27;;;26.88;35.47